Time;durP1;ratioP1;P1;durP2;ratioP2;P2;SDS_P1;SDS_P2;PMS_P1;PMS_P2;Temp;Humidity;BMP_temperature;BMP_pressure;BME280_temperature;BME280_humidity;BME280_pressure;Samples;Min_cycle;Max_cycle;Signal;HPM_P1;HPM_P2
2022/07/20 00:01:37;;;;;;;5.57;2.70;;;26.40;59.00;;;;;;5093122;28;20044;-69
2022/07/20 00:04:03;;;;;;;3.95;2.90;;;26.40;59.00;;;;;;5093180;28;20024;-70
2022/07/20 00:06:29;;;;;;;4.90;3.17;;;26.40;58.90;;;;;;5093103;28;20028;-69
2022/07/20 00:11:40;;;;;;;6.68;2.85;;;26.40;59.10;;;;;;5091316;28;20617;-81
2022/07/20 00:14:06;;;;;;;9.70;3.42;;;26.30;59.20;;;;;;5092751;28;20036;-81
2022/07/20 00:16:34;;;;;;;4.57;3.08;;;26.30;59.10;;;;;;5092821;28;20457;-81
2022/07/20 00:19:00;;;;;;;4.63;2.67;;;26.30;59.00;;;;;;5092423;28;20024;-81
2022/07/20 00:21:26;;;;;;;4.60;3.05;;;26.20;59.10;;;;;;5092520;28;20039;-81
2022/07/20 00:23:52;;;;;;;5.35;3.08;;;26.20;59.40;;;;;;5091277;28;20031;-81
2022/07/20 00:26:18;;;;;;;5.07;3.13;;;26.20;59.60;;;;;;5092190;28;20032;-81
2022/07/20 00:28:44;;;;;;;4.93;2.90;;;26.20;59.80;;;;;;5092202;28;20028;-81
2022/07/20 00:31:09;;;;;;;4.88;2.70;;;26.10;59.80;;;;;;5092312;28;20549;-81
2022/07/20 00:33:35;;;;;;;4.85;2.72;;;26.10;60.10;;;;;;5092345;28;20032;-81
2022/07/20 00:36:01;;;;;;;4.70;3.00;;;26.00;60.20;;;;;;5092144;28;20028;-81
2022/07/20 00:38:27;;;;;;;3.78;2.83;;;26.00;60.30;;;;;;5092201;28;20036;-80
2022/07/20 00:40:53;;;;;;;4.32;3.00;;;26.00;60.50;;;;;;5092149;28;20384;-80
2022/07/20 00:43:19;;;;;;;6.95;3.20;;;25.90;60.70;;;;;;5092178;28;20032;-81
2022/07/20 00:45:45;;;;;;;5.53;2.90;;;25.90;60.90;;;;;;5091952;28;20025;-80
2022/07/20 00:48:11;;;;;;;4.50;3.20;;;25.90;61.20;;;;;;5092021;28;20056;-80
2022/07/20 00:50:37;;;;;;;5.60;3.20;;;25.80;61.40;;;;;;5092174;28;20056;-81
2022/07/20 00:53:04;;;;;;;5.68;3.20;;;25.80;61.50;;;;;;5092132;28;20028;-82
2022/07/20 00:55:30;;;;;;;4.47;3.10;;;25.70;61.60;;;;;;5090541;28;20132;-82
2022/07/20 00:57:56;;;;;;;6.03;3.17;;;25.70;61.90;;;;;;5091581;28;20036;-80
2022/07/20 01:00:22;;;;;;;5.32;3.22;;;25.60;62.00;;;;;;5091709;28;20031;-82
2022/07/20 01:02:48;;;;;;;4.63;2.88;;;25.60;62.20;;;;;;5091837;28;20322;-82
2022/07/20 01:05:14;;;;;;;4.10;2.45;;;25.60;62.40;;;;;;5091364;28;20084;-82
2022/07/20 01:07:48;;;;;;;4.97;2.95;;;25.60;62.70;;;;;;5091385;28;20153;-82
2022/07/20 01:10:16;;;;;;;7.03;2.83;;;25.50;62.80;;;;;;5091370;28;20096;-82
2022/07/20 01:12:49;;;;;;;3.97;2.72;;;25.50;63.00;;;;;;5091928;28;20032;-82
2022/07/20 01:15:16;;;;;;;4.22;3.05;;;25.40;63.20;;;;;;5091681;28;20035;-80
2022/07/20 01:17:43;;;;;;;5.72;3.35;;;25.40;63.20;;;;;;5091341;28;20035;-80
2022/07/20 01:20:17;;;;;;;6.82;3.28;;;25.40;63.40;;;;;;5091271;28;20081;-80
2022/07/20 01:22:44;;;;;;;7.65;3.42;;;25.30;63.60;;;;;;5091461;28;20024;-82
2022/07/20 01:25:10;;;;;;;7.93;3.85;;;25.30;63.80;;;;;;5091519;28;20024;-82
2022/07/20 01:27:36;;;;;;;6.88;3.60;;;25.30;64.10;;;;;;5091044;28;20027;-82
2022/07/20 01:30:02;;;;;;;6.40;3.50;;;25.30;64.10;;;;;;5091262;28;20032;-82
2022/07/20 01:32:27;;;;;;;4.88;3.40;;;25.20;64.10;;;;;;5091390;28;20028;-80
2022/07/20 01:34:53;;;;;;;6.05;3.50;;;25.20;64.30;;;;;;5091298;28;20074;-80
2022/07/20 01:37:19;;;;;;;6.35;3.47;;;25.20;64.30;;;;;;5090880;28;20020;-82
2022/07/20 01:39:44;;;;;;;5.97;3.63;;;25.20;64.30;;;;;;5091010;28;20423;-82
2022/07/20 01:42:10;;;;;;;8.98;3.88;;;25.10;64.20;;;;;;5091200;28;20023;-80
2022/07/20 01:44:36;;;;;;;6.47;3.90;;;25.10;64.30;;;;;;5091025;28;20392;-80
2022/07/20 01:47:02;;;;;;;7.43;4.50;;;25.10;65.10;;;;;;5090980;28;20126;-80
2022/07/20 01:49:27;;;;;;;6.95;4.38;;;25.10;64.50;;;;;;5090774;28;20063;-82
2022/07/20 01:51:54;;;;;;;7.65;3.90;;;25.10;64.60;;;;;;5090989;28;20039;-82
2022/07/20 01:54:19;;;;;;;9.07;3.92;;;25.10;64.70;;;;;;5091077;28;20455;-82
2022/07/20 01:56:45;;;;;;;7.05;3.97;;;25.00;64.90;;;;;;5091190;28;20058;-83
2022/07/20 01:59:11;;;;;;;5.93;3.80;;;25.00;65.10;;;;;;5090673;28;20031;-82
2022/07/20 02:01:38;;;;;;;9.25;4.05;;;25.00;65.20;;;;;;5090972;28;20035;-80
2022/07/20 02:04:05;;;;;;;7.53;4.28;;;24.90;65.30;;;;;;5090823;28;20028;-80
2022/07/20 02:06:31;;;;;;;7.90;4.60;;;24.90;65.50;;;;;;5089206;28;20040;-80
2022/07/20 02:08:56;;;;;;;8.05;4.13;;;24.90;65.70;;;;;;5090621;28;20035;-81
2022/07/20 02:11:22;;;;;;;5.63;3.90;;;24.80;65.80;;;;;;5090890;28;20032;-80
2022/07/20 02:13:48;;;;;;;6.65;4.00;;;24.80;65.90;;;;;;5089586;28;20090;-82
2022/07/20 02:16:17;;;;;;;10.68;4.53;;;24.80;66.20;;;;;;5092100;28;20476;-82
2022/07/20 02:18:46;;;;;;;8.48;4.40;;;24.80;66.60;;;;;;5095224;28;20495;-80
2022/07/20 02:21:13;;;;;;;7.65;3.80;;;24.80;66.70;;;;;;5094952;28;20055;-82
2022/07/20 02:23:39;;;;;;;6.38;3.80;;;24.80;66.80;;;;;;5094920;28;20024;-82
2022/07/20 02:26:05;;;;;;;6.18;3.67;;;24.70;66.80;;;;;;5093494;28;20035;-82
2022/07/20 02:28:32;;;;;;;6.18;3.55;;;24.70;67.10;;;;;;5094589;28;20032;-82
2022/07/20 02:30:57;;;;;;;6.82;4.15;;;24.80;67.30;;;;;;5095180;28;20381;-82
2022/07/20 02:33:23;;;;;;;6.32;3.63;;;24.70;67.30;;;;;;5094542;28;20095;-80
2022/07/20 02:35:49;;;;;;;7.47;3.83;;;24.70;67.50;;;;;;5094786;28;20020;-80
2022/07/20 02:38:15;;;;;;;7.20;3.40;;;24.70;67.80;;;;;;5094549;28;20024;-82
2022/07/20 02:40:40;;;;;;;7.82;3.72;;;24.70;68.10;;;;;;5094301;28;20060;-82
2022/07/20 02:43:06;;;;;;;7.25;3.60;;;24.70;68.20;;;;;;5094572;28;20051;-82
2022/07/20 02:45:32;;;;;;;9.27;3.67;;;24.70;68.20;;;;;;5094433;28;20036;-82
2022/07/20 02:48:02;;;;;;;6.75;3.60;;;24.70;68.00;;;;;;5092770;28;20119;-82
2022/07/20 02:50:37;;;;;;;5.97;4.05;;;24.60;67.70;;;;;;5092949;28;20451;-80
2022/07/20 02:53:05;;;;;;;9.57;4.15;;;24.60;67.80;;;;;;5094400;28;20032;-80
2022/07/20 02:55:31;;;;;;;7.67;3.97;;;24.50;67.90;;;;;;5094190;28;20400;-80
2022/07/20 02:57:57;;;;;;;5.97;3.53;;;24.50;68.10;;;;;;5094044;28;20115;-80
2022/07/20 03:00:23;;;;;;;5.35;3.90;;;24.50;68.30;;;;;;5093985;28;20107;-82
2022/07/20 03:02:50;;;;;;;8.40;3.65;;;24.40;68.20;;;;;;5094069;28;20558;-82
2022/07/20 03:05:16;;;;;;;6.00;3.83;;;24.40;68.50;;;;;;5094320;28;20131;-82
2022/07/20 03:07:42;;;;;;;8.55;3.80;;;24.40;68.70;;;;;;5093585;28;20036;-80
2022/07/20 03:10:09;;;;;;;7.05;3.45;;;24.40;68.70;;;;;;5093838;28;20035;-80
2022/07/20 03:12:35;;;;;;;6.90;4.88;;;24.40;68.60;;;;;;5093943;28;20396;-82
2022/07/20 03:15:01;;;;;;;6.97;4.57;;;24.40;68.60;;;;;;5093844;28;20111;-82
2022/07/20 03:17:27;;;;;;;6.38;4.38;;;24.40;68.50;;;;;;5093595;28;20020;-80
2022/07/20 03:19:53;;;;;;;7.28;4.05;;;24.40;68.40;;;;;;5094084;28;20035;-80
2022/07/20 03:22:18;;;;;;;5.95;3.38;;;24.40;68.00;;;;;;5093772;28;20039;-82
2022/07/20 03:24:44;;;;;;;6.85;3.42;;;24.50;66.90;;;;;;5093620;28;20032;-82
2022/07/20 03:27:10;;;;;;;7.88;3.00;;;24.50;65.70;;;;;;5093468;28;20043;-82
2022/07/20 03:29:36;;;;;;;3.80;2.90;;;24.60;64.80;;;;;;5093273;28;20036;-82
2022/07/20 03:32:02;;;;;;;6.72;3.33;;;24.70;64.50;;;;;;5093571;28;20024;-81
2022/07/20 03:34:28;;;;;;;4.05;2.58;;;24.70;64.60;;;;;;5093510;28;20103;-81
2022/07/20 03:36:54;;;;;;;5.30;2.92;;;24.80;64.70;;;;;;5093308;28;20539;-81
2022/07/20 03:39:19;;;;;;;4.70;3.15;;;24.80;64.70;;;;;;5093308;28;20035;-81
2022/07/20 03:41:45;;;;;;;7.60;3.10;;;24.80;64.60;;;;;;5093413;28;20127;-81
2022/07/20 03:44:11;;;;;;;4.60;2.90;;;24.90;65.20;;;;;;5093341;28;20055;-81
2022/07/20 03:46:37;;;;;;;7.15;2.97;;;24.90;64.60;;;;;;5093036;28;20043;-81
2022/07/20 03:49:03;;;;;;;6.38;3.30;;;24.80;64.70;;;;;;5093216;28;20031;-81
2022/07/20 03:51:29;;;;;;;6.38;3.00;;;24.80;64.70;;;;;;5093154;28;20396;-81
2022/07/20 03:53:54;;;;;;;5.00;2.92;;;24.80;64.40;;;;;;5093127;28;20050;-81
2022/07/20 03:56:20;;;;;;;6.30;3.70;;;24.80;64.30;;;;;;5092999;28;20020;-82
2022/07/20 03:58:47;;;;;;;5.38;3.20;;;24.80;64.40;;;;;;5092738;28;20032;-81
2022/07/20 04:01:12;;;;;;;5.38;3.55;;;24.80;64.10;;;;;;5092811;28;20103;-81
2022/07/20 04:03:38;;;;;;;6.05;3.42;;;24.80;64.20;;;;;;5092997;28;20514;-81
2022/07/20 04:06:04;;;;;;;6.63;3.50;;;24.80;64.50;;;;;;5091682;28;20376;-81
2022/07/20 04:08:30;;;;;;;6.25;3.30;;;24.80;65.20;;;;;;5092426;28;20387;-81
2022/07/20 04:10:55;;;;;;;5.88;3.20;;;24.80;65.30;;;;;;5092708;28;20392;-82
2022/07/20 04:13:21;;;;;;;5.53;3.28;;;24.80;65.40;;;;;;5093220;28;20035;-81
2022/07/20 04:15:47;;;;;;;8.65;4.47;;;24.80;65.60;;;;;;5092405;28;20031;-81
2022/07/20 04:18:15;;;;;;;7.20;4.28;;;24.80;65.50;;;;;;5092620;28;20419;-82
2022/07/20 04:20:41;;;;;;;6.05;3.45;;;24.80;65.50;;;;;;5092567;28;20078;-81
2022/07/20 04:23:08;;;;;;;6.85;3.63;;;24.70;65.30;;;;;;5091391;28;20038;-81
2022/07/20 04:25:33;;;;;;;10.30;3.72;;;24.70;65.40;;;;;;5091341;28;20142;-82
2022/07/20 04:27:59;;;;;;;7.55;3.63;;;24.70;65.80;;;;;;5092479;28;20127;-82
2022/07/20 04:30:25;;;;;;;5.85;3.25;;;24.70;65.70;;;;;;5092472;28;20042;-82
2022/07/20 04:32:51;;;;;;;5.75;3.67;;;24.70;65.80;;;;;;5092526;28;20032;-82
2022/07/20 04:35:17;;;;;;;7.03;3.38;;;24.70;66.10;;;;;;5092843;28;20054;-82
2022/07/20 04:37:42;;;;;;;4.78;3.20;;;24.70;66.30;;;;;;5090961;28;20028;-82
2022/07/20 04:40:09;;;;;;;5.93;3.40;;;24.70;66.70;;;;;;5091870;28;20024;-82
2022/07/20 04:42:35;;;;;;;5.60;3.47;;;24.70;66.70;;;;;;5092283;28;20031;-82
2022/07/20 04:45:00;;;;;;;6.28;3.78;;;24.70;66.70;;;;;;5092927;28;20020;-82
2022/07/20 04:47:26;;;;;;;6.53;3.20;;;24.70;66.50;;;;;;5092306;28;20165;-82
2022/07/20 04:49:52;;;;;;;5.32;3.13;;;24.80;66.50;;;;;;5092187;28;20039;-82
2022/07/20 04:52:18;;;;;;;6.75;3.15;;;24.80;66.50;;;;;;5090825;28;20028;-81
2022/07/20 04:54:43;;;;;;;7.40;3.45;;;24.80;66.40;;;;;;5091926;28;20024;-81
2022/07/20 04:57:09;;;;;;;4.93;3.22;;;24.90;66.30;;;;;;5091839;28;20020;-81
2022/07/20 04:59:35;;;;;;;8.10;3.30;;;24.90;65.90;;;;;;5091497;28;20558;-82
2022/07/20 05:02:01;;;;;;;6.40;3.47;;;24.90;65.70;;;;;;5091908;28;20028;-82
2022/07/20 05:04:27;;;;;;;7.25;3.80;;;24.90;65.60;;;;;;5090556;28;20042;-81
2022/07/20 05:06:52;;;;;;;7.85;3.90;;;25.00;65.50;;;;;;5091679;28;20093;-82
2022/07/20 05:09:18;;;;;;;8.05;3.85;;;25.00;65.40;;;;;;5091430;28;20047;-82
2022/07/20 05:11:47;;;;;;;8.10;4.05;;;25.00;65.10;;;;;;5091687;28;20077;-82
2022/07/20 05:14:12;;;;;;;8.85;4.35;;;25.00;65.00;;;;;;5091612;28;20039;-82
2022/07/20 05:16:38;;;;;;;12.88;5.50;;;25.00;64.90;;;;;;5091647;28;20028;-82
2022/07/20 05:19:05;;;;;;;15.02;7.60;;;25.10;65.60;;;;;;5091823;28;20028;-82
2022/07/20 05:21:30;;;;;;;14.95;8.18;;;25.10;67.00;;;;;;5090335;28;20046;-81
2022/07/20 05:23:56;;;;;;;14.20;8.45;;;25.10;68.20;;;;;;5091549;28;20028;-81
2022/07/20 05:26:22;;;;;;;14.88;9.38;;;25.10;68.80;;;;;;5091244;28;20031;-82
2022/07/20 05:28:48;;;;;;;15.82;9.23;;;25.10;69.00;;;;;;5091042;28;20063;-81
2022/07/20 05:31:14;;;;;;;15.85;10.18;;;25.10;69.70;;;;;;5091366;28;20032;-82
2022/07/20 05:33:41;;;;;;;23.77;12.15;;;25.10;70.80;;;;;;5091097;28;20035;-81
2022/07/20 05:36:08;;;;;;;20.10;11.13;;;25.10;71.30;;;;;;5089786;28;20028;-81
2022/07/20 05:38:33;;;;;;;17.55;10.38;;;25.10;71.50;;;;;;5091016;28;20028;-81
2022/07/20 05:40:59;;;;;;;26.13;12.35;;;25.10;71.80;;;;;;5091133;28;20149;-82
2022/07/20 05:43:25;;;;;;;21.08;12.98;;;25.10;72.30;;;;;;5091292;28;20070;-82
2022/07/20 05:45:50;;;;;;;19.10;12.35;;;25.10;72.60;;;;;;5091175;28;20039;-81
2022/07/20 05:48:17;;;;;;;23.38;12.30;;;25.10;72.70;;;;;;5091199;28;20032;-82
2022/07/20 05:50:43;;;;;;;21.08;12.88;;;25.10;73.00;;;;;;5090048;28;20036;-82
2022/07/20 05:53:10;;;;;;;19.90;12.80;;;25.10;73.20;;;;;;5091201;28;20031;-82
2022/07/20 05:55:37;;;;;;;24.40;13.18;;;25.10;73.30;;;;;;5090897;28;20063;-82
2022/07/20 05:58:04;;;;;;;22.65;12.48;;;25.10;73.40;;;;;;5072863;28;20046;-82
2022/07/20 06:00:30;;;;;;;23.23;12.25;;;25.10;73.50;;;;;;5091085;28;20396;-82
2022/07/20 06:02:56;;;;;;;19.05;12.93;;;25.10;73.80;;;;;;5091166;28;20183;-82
2022/07/20 06:05:22;;;;;;;20.13;13.60;;;25.10;74.00;;;;;;5089911;28;20119;-82
2022/07/20 06:07:48;;;;;;;24.00;13.68;;;25.10;74.00;;;;;;5104837;23;20028;-87
2022/07/20 06:10:13;;;;;;;21.65;12.98;;;25.10;74.00;;;;;;5087452;28;20032;-88
2022/07/20 06:12:39;;;;;;;23.58;14.20;;;25.10;74.10;;;;;;5090090;28;20024;-88
2022/07/20 06:15:06;;;;;;;21.08;13.13;;;25.10;74.30;;;;;;5090979;28;20504;-87
2022/07/20 06:17:37;;;;;;;20.38;12.80;;;25.10;74.50;;;;;;5089854;28;20032;-87
2022/07/20 06:20:10;;;;;;;22.48;13.75;;;25.10;74.70;;;;;;5070754;28;20485;-88
2022/07/20 06:22:37;;;;;;;18.30;13.63;;;25.10;74.90;;;;;;5069484;28;20024;-87
2022/07/20 06:25:07;;;;;;;21.15;13.45;;;25.10;75.10;;;;;;5069702;28;20027;-87
2022/07/20 06:27:33;;;;;;;20.48;13.68;;;25.20;75.10;;;;;;5070789;28;20036;-88
2022/07/20 06:30:03;;;;;;;20.45;14.35;;;25.20;75.20;;;;;;5052858;28;20692;-87
2022/07/20 06:32:29;;;;;;;21.47;13.87;;;25.30;75.10;;;;;;5070768;28;20028;-87
2022/07/20 06:34:55;;;;;;;23.50;14.23;;;25.30;75.20;;;;;;5069203;28;20798;-88
2022/07/20 06:37:21;;;;;;;21.77;14.00;;;25.30;75.20;;;;;;5070482;28;20078;-87
2022/07/20 06:39:46;;;;;;;22.40;14.50;;;25.30;75.90;;;;;;5070540;28;20112;-88
2022/07/20 06:42:13;;;;;;;20.23;14.82;;;25.30;75.30;;;;;;5053022;28;20068;-88
2022/07/20 06:44:42;;;;;;;22.40;14.68;;;25.30;75.30;;;;;;5070667;28;20038;-88
2022/07/20 06:47:08;;;;;;;19.60;13.50;;;25.30;75.40;;;;;;5070572;28;20064;-88
2022/07/20 06:49:33;;;;;;;20.25;15.00;;;25.30;75.40;;;;;;5069005;28;20496;-88
2022/07/20 06:51:59;;;;;;;23.40;14.30;;;25.40;75.20;;;;;;5070762;28;20024;-87
2022/07/20 06:54:26;;;;;;;20.60;14.27;;;25.40;75.10;;;;;;5069539;28;20031;-88
2022/07/20 06:56:54;;;;;;;21.10;14.38;;;25.40;75.30;;;;;;5070476;28;20051;-88
2022/07/20 06:59:20;;;;;;;24.25;14.73;;;25.50;75.20;;;;;;5052405;28;20024;-89
2022/07/20 07:01:46;;;;;;;20.50;14.77;;;25.50;75.20;;;;;;5071234;28;20021;-87
2022/07/20 07:04:15;;;;;;;23.95;14.68;;;25.60;75.10;;;;;;5074107;28;20115;-88
2022/07/20 07:06:41;;;;;;;22.08;15.02;;;25.60;75.30;;;;;;5073660;28;20036;-87
2022/07/20 07:09:06;;;;;;;21.15;15.02;;;25.60;75.20;;;;;;5072375;28;20123;-88
2022/07/20 07:11:32;;;;;;;27.92;16.48;;;25.60;74.90;;;;;;5073919;28;20484;-88
2022/07/20 07:13:58;;;;;;;26.40;15.52;;;25.60;75.30;;;;;;5073785;28;20029;-87
2022/07/20 07:16:25;;;;;;;28.10;17.10;;;25.70;75.20;;;;;;5072472;28;20039;-87
2022/07/20 07:18:51;;;;;;;21.92;16.70;;;25.70;74.60;;;;;;5073322;28;20100;-87
2022/07/20 07:21:17;;;;;;;25.13;16.55;;;25.80;74.70;;;;;;5072740;28;20047;-87
2022/07/20 07:23:45;;;;;;;25.77;16.92;;;25.80;75.10;;;;;;5073927;28;20020;-88
2022/07/20 07:26:11;;;;;;;23.73;16.48;;;25.80;74.80;;;;;;5072421;28;20035;-89
2022/07/20 07:28:37;;;;;;;26.40;16.58;;;25.90;74.90;;;;;;5073344;28;20032;-87
2022/07/20 07:31:03;;;;;;;27.48;16.80;;;25.90;74.90;;;;;;5073502;28;20028;-88
2022/07/20 07:33:29;;;;;;;24.15;17.20;;;26.00;75.00;;;;;;5073466;28;20104;-88
2022/07/20 07:35:55;;;;;;;25.40;15.93;;;26.00;74.70;;;;;;5073475;28;20036;-88
2022/07/20 07:38:21;;;;;;;23.65;18.08;;;26.00;74.70;;;;;;5073370;28;20036;-88
2022/07/20 07:40:47;;;;;;;21.63;17.20;;;26.10;74.70;;;;;;5073052;28;20058;-87
2022/07/20 07:43:13;;;;;;;27.95;17.25;;;26.00;74.90;;;;;;5073335;28;20373;-87
2022/07/20 07:45:42;;;;;;;25.65;17.38;;;26.10;75.10;;;;;;5071896;28;20044;-88
2022/07/20 07:48:10;;;;;;;28.15;17.95;;;26.10;74.90;;;;;;5071690;28;20034;-88
2022/07/20 07:50:40;;;;;;;25.92;18.23;;;26.20;74.70;;;;;;5073153;28;20033;-87
2022/07/20 07:53:07;;;;;;;24.50;17.08;;;26.20;74.70;;;;;;5073371;28;20048;-88
2022/07/20 07:55:34;;;;;;;22.67;17.15;;;26.20;74.80;;;;;;5073013;28;20032;-87
2022/07/20 07:58:05;;;;;;;26.80;18.75;;;26.30;74.10;;;;;;5073084;28;20033;-88
2022/07/20 08:00:32;;;;;;;26.77;18.58;;;26.30;72.90;;;;;;5073068;28;20048;-87
2022/07/20 08:02:57;;;;;;;25.13;17.67;;;26.30;73.50;;;;;;5071990;28;20031;-88
2022/07/20 08:05:23;;;;;;;22.65;18.27;;;26.30;73.20;;;;;;5072922;28;20389;-87
2022/07/20 08:07:52;;;;;;;28.02;17.70;;;26.30;73.80;;;;;;5072519;28;20032;-88
2022/07/20 08:10:21;;;;;;;25.83;18.05;;;26.30;74.20;;;;;;5071440;28;20064;-88
2022/07/20 08:12:47;;;;;;;28.05;18.35;;;26.30;74.30;;;;;;5054624;28;20029;-88
2022/07/20 08:15:15;;;;;;;24.73;18.02;;;26.30;74.20;;;;;;5070728;28;20382;-88
2022/07/20 08:17:45;;;;;;;27.13;19.05;;;26.40;74.40;;;;;;5072496;28;20036;-87
2022/07/20 08:20:14;;;;;;;27.15;19.25;;;26.40;74.60;;;;;;5071278;28;20024;-87
2022/07/20 08:22:40;;;;;;;26.20;18.48;;;26.40;74.40;;;;;;5071336;28;20516;-88
2022/07/20 08:25:09;;;;;;;24.85;17.75;;;26.40;74.60;;;;;;5071314;28;20033;-88
2022/07/20 08:27:37;;;;;;;24.55;17.83;;;26.40;74.30;;;;;;5072319;28;20033;-88
2022/07/20 08:30:04;;;;;;;26.27;18.33;;;26.40;74.50;;;;;;5072188;28;20154;-88
2022/07/20 08:32:33;;;;;;;22.65;17.42;;;26.50;75.00;;;;;;5072579;28;20039;-88
2022/07/20 08:34:58;;;;;;;28.42;18.40;;;26.60;74.50;;;;;;5072267;28;20054;-88
2022/07/20 08:37:24;;;;;;;24.90;17.65;;;26.60;74.40;;;;;;5072460;28;20107;-88
2022/07/20 08:39:53;;;;;;;27.65;17.17;;;26.60;74.30;;;;;;5072280;28;20028;-88
2022/07/20 08:42:18;;;;;;;24.05;17.80;;;26.70;74.20;;;;;;5054524;28;20511;-87
2022/07/20 08:44:47;;;;;;;25.65;17.13;;;26.70;73.90;;;;;;5072481;28;20396;-87
2022/07/20 08:47:14;;;;;;;23.52;16.75;;;26.70;73.30;;;;;;5072159;28;20036;-87
2022/07/20 08:49:48;;;;;;;23.05;17.08;;;26.80;72.50;;;;;;5072013;28;20107;-88
2022/07/20 08:52:16;;;;;;;21.70;16.45;;;26.90;72.70;;;;;;5070988;28;20034;-87
2022/07/20 08:54:45;;;;;;;21.42;16.20;;;26.90;71.70;;;;;;5087750;28;20032;-88
2022/07/20 08:57:14;;;;;;;23.15;16.30;;;26.90;71.80;;;;;;5071985;28;20027;-88
2022/07/20 08:59:44;;;;;;;25.73;16.08;;;26.90;71.90;;;;;;5071884;28;20035;-88
2022/07/20 09:02:11;;;;;;;20.63;15.63;;;26.90;71.90;;;;;;5072053;28;20025;-88
2022/07/20 09:04:55;;;;;;;22.23;15.20;;;26.90;71.90;;;;;;5071984;28;20081;-87
2022/07/20 09:07:59;;;;;;;23.42;15.70;;;26.90;71.70;;;;;;5070745;28;20301;-88
2022/07/20 09:10:34;;;;;;;23.77;15.60;;;27.00;71.70;;;;;;5046451;28;20044;-87
2022/07/20 09:13:07;;;;;;;25.48;15.88;;;27.00;71.80;;;;;;5071840;28;20029;-88
2022/07/20 09:15:42;;;;;;;30.88;16.80;;;27.00;72.10;;;;;;5070368;28;20063;-87
2022/07/20 09:18:18;;;;;;;20.55;15.85;;;27.00;72.60;;;;;;5054074;28;20511;-87
2022/07/20 09:20:49;;;;;;;24.50;15.20;;;27.10;73.00;;;;;;5070286;28;20562;-88
2022/07/20 09:23:18;;;;;;;22.88;15.57;;;27.10;72.60;;;;;;5071541;28;20025;-87
2022/07/20 09:25:56;;;;;;;19.75;15.35;;;27.20;72.10;;;;;;5071357;28;20036;-88
2022/07/20 09:28:41;;;;;;;22.13;15.73;;;27.20;71.70;;;;;;5071346;28;20029;-87
2022/07/20 09:31:10;;;;;;;20.00;14.32;;;27.20;71.30;;;;;;5070191;28;20443;-88
2022/07/20 09:33:36;;;;;;;24.67;15.30;;;27.20;71.60;;;;;;5071390;28;20024;-88
2022/07/20 09:36:05;;;;;;;21.17;14.32;;;27.20;71.40;;;;;;5069914;28;20507;-87
2022/07/20 09:38:39;;;;;;;19.65;14.10;;;27.20;71.40;;;;;;5069557;28;20024;-88
2022/07/20 09:41:28;;;;;;;16.48;12.88;;;27.20;71.20;;;;;;5070285;28;20460;-88
2022/07/20 09:43:55;;;;;;;22.35;12.95;;;27.20;71.30;;;;;;5071302;28;20070;-87
2022/07/20 09:46:25;;;;;;;20.00;13.18;;;27.20;71.30;;;;;;5070942;28;20021;-88
2022/07/20 09:48:55;;;;;;;19.65;12.55;;;27.30;71.20;;;;;;5069626;28;20025;-87
2022/07/20 09:51:31;;;;;;;19.85;13.55;;;27.30;71.20;;;;;;5070048;28;20500;-88
2022/07/20 09:54:03;;;;;;;22.33;14.45;;;27.30;71.20;;;;;;5071254;28;20032;-88
2022/07/20 09:56:31;;;;;;;16.90;12.57;;;27.30;71.40;;;;;;5071012;28;20031;-88
2022/07/20 09:58:58;;;;;;;16.63;11.93;;;27.30;71.50;;;;;;5069556;28;20043;-87
2022/07/20 10:01:27;;;;;;;19.77;12.50;;;27.40;71.20;;;;;;5069535;28;20078;-88
2022/07/20 10:03:57;;;;;;;16.63;12.20;;;27.40;71.30;;;;;;5071119;28;20033;-88
2022/07/20 10:06:25;;;;;;;17.60;12.82;;;27.40;71.30;;;;;;5069600;28;20032;-89
2022/07/20 10:08:51;;;;;;;20.63;13.90;;;27.50;71.60;;;;;;5070732;28;20546;-88
2022/07/20 10:11:22;;;;;;;19.92;12.98;;;27.40;71.50;;;;;;5069697;28;20488;-88
2022/07/20 10:13:52;;;;;;;19.98;12.88;;;27.50;72.30;;;;;;5070691;28;20103;-88
2022/07/20 10:16:39;;;;;;;16.73;12.30;;;27.50;72.70;;;;;;5069427;28;20435;-88
2022/07/20 10:19:08;;;;;;;20.25;13.07;;;27.50;72.50;;;;;;5070561;28;20103;-89
2022/07/20 10:21:42;;;;;;;20.98;12.48;;;27.50;72.50;;;;;;5070716;28;20496;-89
2022/07/20 10:24:25;;;;;;;22.10;13.35;;;27.50;72.50;;;;;;5070688;28;20028;-88
2022/07/20 10:27:16;;;;;;;16.20;11.43;;;27.50;72.20;;;;;;5070501;28;20492;-88
2022/07/20 10:29:47;;;;;;;16.95;11.60;;;27.60;72.70;;;;;;5070304;28;20041;-87
2022/07/20 10:32:20;;;;;;;18.10;11.05;;;27.70;71.40;;;;;;5069341;28;20036;-88
2022/07/20 10:35:01;;;;;;;16.70;11.40;;;27.60;71.60;;;;;;5070408;28;20064;-87
2022/07/20 10:37:40;;;;;;;16.77;11.80;;;27.70;72.20;;;;;;5072202;28;20115;-87
2022/07/20 10:40:16;;;;;;;19.48;12.32;;;27.70;72.50;;;;;;5073148;28;20028;-88
2022/07/20 10:42:48;;;;;;;18.55;12.05;;;27.70;72.50;;;;;;5073447;28;20033;-90
2022/07/20 10:45:16;;;;;;;17.15;12.15;;;27.70;72.70;;;;;;5072997;28;20123;-88
2022/07/20 10:48:01;;;;;;;16.95;11.27;;;27.60;72.70;;;;;;5072971;28;20094;-87
2022/07/20 10:50:36;;;;;;;15.38;11.55;;;27.60;72.90;;;;;;5074328;28;20548;-88
2022/07/20 10:53:11;;;;;;;17.13;11.30;;;27.50;72.40;;;;;;5073372;28;20063;-88
2022/07/20 10:55:46;;;;;;;18.23;11.48;;;27.60;72.50;;;;;;5072495;28;20066;-88
2022/07/20 10:58:13;;;;;;;16.90;10.95;;;27.60;72.70;;;;;;5074268;28;20326;-88
2022/07/20 11:00:45;;;;;;;14.93;10.40;;;27.70;72.40;;;;;;5074041;28;20044;-89
2022/07/20 11:03:20;;;;;;;16.40;10.73;;;27.60;72.50;;;;;;5074100;28;20385;-88
2022/07/20 11:05:48;;;;;;;15.32;11.00;;;27.70;72.80;;;;;;5072516;28;20040;-89
2022/07/20 11:08:14;;;;;;;18.25;11.63;;;27.80;72.30;;;;;;5073637;28;20115;-88
2022/07/20 11:10:51;;;;;;;;;;;;;;;;;;;;;
2022/07/20 11:13:20;;;;;;;14.45;11.00;;;27.80;72.00;;;;;;5070541;28;20052;-89
2022/07/20 11:15:51;;;;;;;19.85;11.80;;;27.90;71.90;;;;;;5072408;28;20032;-88
2022/07/20 11:18:25;;;;;;;17.13;10.95;;;27.90;72.00;;;;;;5073655;28;20504;-88
2022/07/20 11:20:55;;;;;;;14.93;10.60;;;27.90;71.80;;;;;;5055768;28;20123;-87
2022/07/20 11:23:23;;;;;;;14.90;10.70;;;27.80;71.40;;;;;;5072518;28;20024;-87
2022/07/20 11:26:02;;;;;;;12.73;10.10;;;27.90;71.50;;;;;;5073434;28;20049;-88
2022/07/20 11:28:33;;;;;;;15.80;10.05;;;27.90;71.50;;;;;;5073478;28;20544;-89
2022/07/20 11:31:09;;;;;;;19.33;10.25;;;27.90;71.90;;;;;;5073407;28;20031;-88
2022/07/20 11:33:43;;;;;;;17.70;11.30;;;28.00;71.80;;;;;;5072682;28;20029;-88
2022/07/20 11:36:17;;;;;;;15.38;11.02;;;27.90;71.70;;;;;;5073398;28;20112;-88
2022/07/20 11:38:46;;;;;;;17.13;10.60;;;27.90;71.50;;;;;;5072097;28;20029;-88
2022/07/20 11:41:24;;;;;;;14.48;10.05;;;28.00;71.70;;;;;;5073446;28;20082;-87
2022/07/20 11:43:51;;;;;;;18.23;11.40;;;28.00;71.40;;;;;;5073598;28;20026;-88
2022/07/20 11:46:29;;;;;;;15.13;11.02;;;28.00;71.50;;;;;;5071998;28;20056;-88
2022/07/20 11:49:01;;;;;;;13.23;10.65;;;28.00;72.20;;;;;;5053665;28;20032;-87
2022/07/20 11:51:28;;;;;;;14.05;9.55;;;28.00;71.20;;;;;;5072126;28;20028;-88
2022/07/20 11:53:55;;;;;;;17.10;10.63;;;28.00;71.40;;;;;;5073191;28;20028;-88
2022/07/20 11:56:24;;;;;;;15.30;10.38;;;28.10;71.50;;;;;;5072988;28;20754;-89
2022/07/20 11:58:52;;;;;;;23.75;11.77;;;28.10;71.60;;;;;;5072860;28;20029;-88
2022/07/20 12:01:30;;;;;;;18.05;11.38;;;28.10;71.20;;;;;;5071860;28;20048;-88
2022/07/20 12:04:01;;;;;;;12.90;10.38;;;28.10;71.60;;;;;;5072988;28;20043;-87
2022/07/20 12:06:30;;;;;;;17.23;10.95;;;28.00;71.80;;;;;;5073155;28;20024;-88
2022/07/20 12:09:07;;;;;;;15.25;10.32;;;28.00;71.80;;;;;;5080972;23;20519;-82
2022/07/20 12:11:54;;;;;;;11.98;10.10;;;28.10;71.70;;;;;;5072586;28;20081;-83
2022/07/20 12:14:29;;;;;;;14.60;10.32;;;28.10;71.50;;;;;;5058155;28;20048;-82
2022/07/20 12:16:55;;;;;;;16.60;9.68;;;28.10;71.90;;;;;;5071019;28;20373;-82
2022/07/20 12:19:21;;;;;;;13.73;9.00;;;28.30;71.50;;;;;;5072243;28;20055;-82
2022/07/20 12:21:49;;;;;;;15.45;8.90;;;28.40;71.70;;;;;;5054582;28;20388;-82
2022/07/20 12:24:15;;;;;;;12.82;8.05;;;28.50;70.40;;;;;;5054648;28;20033;-82
2022/07/20 12:26:43;;;;;;;16.52;9.15;;;28.50;69.30;;;;;;5054567;28;20086;-83
2022/07/20 12:29:26;;;;;;;13.98;9.13;;;28.60;69.10;;;;;;5071878;28;20100;-82
2022/07/20 12:32:03;;;;;;;12.73;8.60;;;28.80;69.00;;;;;;5072267;28;20041;-82
2022/07/20 12:34:31;;;;;;;12.23;8.63;;;28.80;68.80;;;;;;5072281;28;20083;-82
2022/07/20 12:36:57;;;;;;;11.52;8.43;;;28.90;69.70;;;;;;5072136;28;20028;-82
2022/07/20 12:39:47;;;;;;;13.13;8.68;;;29.00;68.40;;;;;;5071809;28;20066;-82
2022/07/20 12:42:23;;;;;;;14.23;7.85;;;29.00;68.40;;;;;;5072100;28;20477;-83
2022/07/20 12:44:58;;;;;;;12.35;7.28;;;29.10;68.30;;;;;;5072242;28;20082;-82